Time;durP1;ratioP1;P1;durP2;ratioP2;P2;SDS_P1;SDS_P2;PMS_P1;PMS_P2;Temp;Humidity;BMP_temperature;BMP_pressure;BME280_temperature;BME280_humidity;BME280_pressure;Samples;Min_cycle;Max_cycle;Signal;HPM_P1;HPM_P2
2022/03/03 00:01:21;;;;;;;12.07;6.43;;;3.10;99.90;;;;;;5209200;28;20095;-73
2022/03/03 00:03:51;;;;;;;10.93;5.82;;;3.20;99.90;;;;;;5209292;28;20033;-73
2022/03/03 00:06:22;;;;;;;14.07;6.50;;;3.10;99.90;;;;;;5209227;28;20057;-72
2022/03/03 00:08:53;;;;;;;13.05;7.38;;;2.90;99.90;;;;;;5209115;28;20025;-73
2022/03/03 00:11:24;;;;;;;11.25;6.40;;;3.00;99.90;;;;;;5209198;28;20024;-73
2022/03/03 00:13:55;;;;;;;16.60;7.22;;;3.10;99.90;;;;;;5209097;28;20128;-73
2022/03/03 00:16:26;;;;;;;13.02;7.70;;;3.00;99.90;;;;;;5208927;28;20026;-73
2022/03/03 00:18:57;;;;;;;17.52;7.82;;;3.00;99.90;;;;;;5209004;28;20534;-72
2022/03/03 00:21:28;;;;;;;12.73;7.55;;;2.90;99.90;;;;;;5208708;28;20033;-72
2022/03/03 00:23:59;;;;;;;11.57;6.25;;;3.10;99.90;;;;;;5208867;28;20025;-73
2022/03/03 00:26:30;;;;;;;11.45;6.38;;;2.90;99.90;;;;;;5208945;28;20033;-73
2022/03/03 00:29:01;;;;;;;12.73;7.45;;;3.10;99.90;;;;;;5208676;28;20033;-73
2022/03/03 00:31:32;;;;;;;11.40;7.28;;;2.90;99.90;;;;;;5208728;28;20030;-72
2022/03/03 00:34:03;;;;;;;15.68;8.68;;;3.10;99.90;;;;;;5208788;28;20030;-73
2022/03/03 00:36:34;;;;;;;13.20;7.75;;;3.10;99.90;;;;;;5208566;28;20033;-72
2022/03/03 00:39:06;;;;;;;10.15;7.13;;;3.00;99.90;;;;;;5208647;28;20531;-73
2022/03/03 00:41:37;;;;;;;13.75;7.78;;;3.10;99.90;;;;;;5208338;28;20044;-72
2022/03/03 00:44:09;;;;;;;15.50;9.57;;;3.00;99.90;;;;;;5208560;28;20413;-72
2022/03/03 00:46:40;;;;;;;11.82;7.30;;;3.10;99.90;;;;;;5208396;28;20021;-72
2022/03/03 00:49:11;;;;;;;10.45;6.32;;;3.20;99.90;;;;;;5208366;28;20026;-72
2022/03/03 00:51:42;;;;;;;11.35;7.30;;;3.10;99.90;;;;;;5208269;28;20040;-72
2022/03/03 00:54:13;;;;;;;10.20;6.45;;;3.20;99.90;;;;;;5208212;28;20018;-72
2022/03/03 00:56:44;;;;;;;11.90;7.10;;;3.00;99.90;;;;;;5208197;28;20489;-72
2022/03/03 00:59:15;;;;;;;10.73;6.63;;;3.10;99.90;;;;;;5207948;28;20129;-72
2022/03/03 01:01:45;;;;;;;9.40;6.18;;;3.20;99.90;;;;;;5208222;28;20116;-72
2022/03/03 01:04:16;;;;;;;8.90;5.90;;;3.10;99.90;;;;;;5207633;28;20022;-73
2022/03/03 01:06:47;;;;;;;9.25;6.45;;;3.10;99.90;;;;;;5208091;28;20381;-73
2022/03/03 01:09:18;;;;;;;10.55;6.53;;;3.00;99.90;;;;;;5208088;28;20470;-73
2022/03/03 01:11:49;;;;;;;11.70;6.85;;;3.10;99.90;;;;;;5207975;28;20028;-72
2022/03/03 01:14:22;;;;;;;10.23;5.97;;;3.10;99.90;;;;;;5207903;28;20032;-73
2022/03/03 01:16:53;;;;;;;10.13;6.25;;;3.10;99.90;;;;;;5207899;28;20378;-72
2022/03/03 01:19:24;;;;;;;11.18;6.82;;;3.10;99.90;;;;;;5207703;28;20033;-72
2022/03/03 01:21:55;;;;;;;9.13;5.93;;;3.10;99.90;;;;;;5208699;28;20053;-72
2022/03/03 01:24:26;;;;;;;11.27;7.43;;;3.10;99.90;;;;;;5207697;28;20021;-73
2022/03/03 01:26:58;;;;;;;11.88;6.10;;;3.10;99.90;;;;;;5206270;28;20029;-72
2022/03/03 01:29:28;;;;;;;10.93;7.55;;;3.20;99.90;;;;;;5208201;28;20037;-72
2022/03/03 01:31:59;;;;;;;10.30;6.30;;;3.20;99.90;;;;;;5207683;28;20092;-72
2022/03/03 01:34:30;;;;;;;11.02;6.30;;;3.10;99.90;;;;;;5207483;28;20021;-72
2022/03/03 01:37:01;;;;;;;12.38;6.82;;;3.10;99.90;;;;;;5207486;28;20021;-72
2022/03/03 01:39:32;;;;;;;10.68;7.13;;;3.20;99.90;;;;;;5207376;28;20033;-72
2022/03/03 01:42:03;;;;;;;13.95;9.02;;;3.10;99.90;;;;;;5207361;28;20087;-72
2022/03/03 01:44:34;;;;;;;14.45;7.68;;;2.90;99.90;;;;;;5207223;28;20115;-72
2022/03/03 01:47:19;;;;;;;12.65;7.75;;;3.00;99.90;;;;;;5207289;28;20513;-73
2022/03/03 01:49:51;;;;;;;9.75;6.70;;;3.00;99.90;;;;;;5205981;28;20469;-72
2022/03/03 01:52:22;;;;;;;10.02;6.75;;;3.10;99.90;;;;;;5205888;28;20018;-72
2022/03/03 01:54:53;;;;;;;13.35;7.80;;;3.20;99.90;;;;;;5207123;28;20032;-73
2022/03/03 01:57:24;;;;;;;10.73;7.45;;;3.10;99.90;;;;;;5206977;28;20041;-72
2022/03/03 01:59:55;;;;;;;13.70;8.10;;;3.00;99.90;;;;;;5206737;28;20128;-73
2022/03/03 02:02:27;;;;;;;11.88;7.30;;;3.10;99.90;;;;;;5206959;28;20135;-72
2022/03/03 02:04:58;;;;;;;13.15;7.40;;;3.10;99.90;;;;;;5207106;28;20033;-72
2022/03/03 02:07:28;;;;;;;12.82;8.20;;;3.00;99.90;;;;;;5206990;28;20029;-72
2022/03/03 02:10:01;;;;;;;10.60;7.10;;;3.10;99.90;;;;;;5205733;28;20060;-72
2022/03/03 02:12:33;;;;;;;10.40;6.65;;;3.10;99.90;;;;;;5205583;28;20022;-72
2022/03/03 02:15:05;;;;;;;12.27;6.55;;;3.10;99.90;;;;;;5205975;28;20021;-73
2022/03/03 02:17:36;;;;;;;10.55;6.07;;;3.00;99.90;;;;;;5206824;28;20035;-72
2022/03/03 02:20:08;;;;;;;8.18;5.07;;;3.20;99.90;;;;;;5206548;28;20021;-72
2022/03/03 02:22:38;;;;;;;11.30;6.95;;;3.10;99.90;;;;;;5206693;28;20041;-73
2022/03/03 02:25:10;;;;;;;10.15;6.60;;;3.20;99.90;;;;;;5207179;28;20028;-73
2022/03/03 02:27:42;;;;;;;10.23;6.55;;;3.10;99.90;;;;;;5206550;28;20425;-73
2022/03/03 02:30:14;;;;;;;12.07;6.90;;;3.10;99.90;;;;;;5206648;28;20028;-72
2022/03/03 02:32:47;;;;;;;10.90;7.22;;;3.20;99.90;;;;;;5206696;28;20488;-73
2022/03/03 02:35:18;;;;;;;11.38;7.25;;;3.10;99.90;;;;;;5206616;28;20465;-73
2022/03/03 02:37:49;;;;;;;13.93;8.80;;;3.10;99.90;;;;;;5206664;28;20053;-73
2022/03/03 02:40:20;;;;;;;12.35;7.53;;;3.10;99.90;;;;;;5206457;28;20029;-72
2022/03/03 02:42:54;;;;;;;10.63;7.40;;;3.20;99.90;;;;;;5206568;28;20038;-72
2022/03/03 02:45:25;;;;;;;9.43;6.18;;;3.10;99.90;;;;;;5206413;28;20037;-72
2022/03/03 02:47:56;;;;;;;11.98;7.03;;;3.20;99.90;;;;;;5206524;28;20083;-72
2022/03/03 02:50:28;;;;;;;9.05;5.97;;;3.20;99.90;;;;;;5206132;28;20030;-72
2022/03/03 02:53:02;;;;;;;12.45;7.15;;;3.10;99.90;;;;;;5206447;28;20033;-72
2022/03/03 02:55:32;;;;;;;12.93;7.18;;;3.00;99.90;;;;;;5206345;28;20108;-72
2022/03/03 02:58:05;;;;;;;10.70;6.63;;;3.20;99.90;;;;;;5206394;28;20109;-73
2022/03/03 03:00:42;;;;;;;11.25;7.10;;;3.10;99.90;;;;;;5205988;28;20049;-73
2022/03/03 03:03:15;;;;;;;11.45;6.50;;;3.10;99.90;;;;;;5205086;28;20033;-73
2022/03/03 03:05:46;;;;;;;8.60;6.07;;;3.10;99.90;;;;;;5205015;28;20091;-73
2022/03/03 03:08:18;;;;;;;10.88;6.55;;;3.00;99.90;;;;;;5206313;28;20037;-73
2022/03/03 03:10:49;;;;;;;13.00;6.60;;;3.20;99.90;;;;;;5204985;28;20029;-73
2022/03/03 03:13:20;;;;;;;9.23;6.45;;;3.20;99.90;;;;;;5206264;28;20080;-73
2022/03/03 03:15:51;;;;;;;10.98;6.15;;;3.10;99.90;;;;;;5206172;28;20022;-72
2022/03/03 03:18:22;;;;;;;11.05;6.95;;;3.00;99.90;;;;;;5204773;28;20504;-73
2022/03/03 03:20:54;;;;;;;9.77;6.63;;;3.00;99.90;;;;;;5205924;28;20033;-73
2022/03/03 03:23:25;;;;;;;10.18;6.28;;;2.90;99.90;;;;;;5206209;28;20088;-72
2022/03/03 03:25:56;;;;;;;9.75;6.38;;;3.10;99.90;;;;;;5206306;28;20033;-74
2022/03/03 03:28:27;;;;;;;8.40;6.25;;;3.10;99.90;;;;;;5208690;28;20103;-72
2022/03/03 03:30:58;;;;;;;9.57;6.40;;;3.10;99.90;;;;;;5210018;28;20076;-72
2022/03/03 03:33:28;;;;;;;10.05;6.38;;;3.10;99.90;;;;;;5209903;28;20397;-72
2022/03/03 03:35:59;;;;;;;10.85;6.63;;;3.10;99.90;;;;;;5209780;28;20350;-72
2022/03/03 03:38:30;;;;;;;11.63;6.70;;;3.10;99.90;;;;;;5209888;28;20025;-73
2022/03/03 03:41:01;;;;;;;15.50;6.82;;;3.10;99.90;;;;;;5209620;28;20025;-73
2022/03/03 03:43:32;;;;;;;11.38;7.05;;;3.00;99.90;;;;;;5209468;28;20044;-73
2022/03/03 03:46:03;;;;;;;13.13;7.88;;;3.00;99.90;;;;;;5209650;28;20462;-72
2022/03/03 03:48:34;;;;;;;14.25;9.05;;;2.90;99.90;;;;;;5209741;28;20026;-73
2022/03/03 03:51:05;;;;;;;13.35;8.20;;;2.90;99.90;;;;;;5209418;28;20030;-74
2022/03/03 03:53:36;;;;;;;10.15;6.75;;;2.90;99.90;;;;;;5209463;28;20029;-72
2022/03/03 03:56:07;;;;;;;11.98;6.32;;;3.00;99.90;;;;;;5209508;28;20029;-73
2022/03/03 03:58:38;;;;;;;11.25;6.75;;;3.00;99.90;;;;;;5209296;28;20030;-72
2022/03/03 04:01:08;;;;;;;14.30;8.25;;;3.10;99.90;;;;;;5209025;28;20053;-73
2022/03/03 04:03:39;;;;;;;11.23;6.82;;;3.00;99.90;;;;;;5209335;28;20021;-72
2022/03/03 04:06:10;;;;;;;11.38;7.35;;;2.90;99.90;;;;;;5209150;28;20370;-73
2022/03/03 04:08:41;;;;;;;12.40;8.63;;;3.00;99.90;;;;;;5209223;28;20159;-72
2022/03/03 04:11:12;;;;;;;10.82;6.88;;;3.10;99.90;;;;;;5209171;28;20025;-72
2022/03/03 04:13:42;;;;;;;9.65;6.13;;;3.10;99.90;;;;;;5209169;28;20023;-73
2022/03/03 04:16:13;;;;;;;15.52;8.25;;;3.00;99.90;;;;;;5209043;28;20040;-73
2022/03/03 04:18:44;;;;;;;10.73;6.40;;;3.00;99.90;;;;;;5209059;28;20018;-73
2022/03/03 04:21:15;;;;;;;8.13;6.13;;;3.00;99.90;;;;;;5208727;28;20060;-74
2022/03/03 04:23:46;;;;;;;11.07;7.13;;;3.00;99.90;;;;;;5209003;28;20084;-73
2022/03/03 04:26:16;;;;;;;13.63;6.82;;;3.00;99.90;;;;;;5208935;28;20040;-72
2022/03/03 04:28:47;;;;;;;10.15;6.32;;;3.00;99.90;;;;;;5208781;28;20381;-73
2022/03/03 04:31:18;;;;;;;12.88;6.88;;;2.90;99.90;;;;;;5208830;28;20033;-73
2022/03/03 04:33:49;;;;;;;12.13;6.43;;;2.80;99.90;;;;;;5208832;28;20092;-72
2022/03/03 04:36:20;;;;;;;13.35;6.18;;;2.90;99.90;;;;;;5208668;28;20163;-72
2022/03/03 04:38:51;;;;;;;10.90;6.78;;;2.90;99.90;;;;;;5207743;28;20115;-73
2022/03/03 04:41:22;;;;;;;10.95;6.65;;;2.90;99.90;;;;;;5208492;28;20033;-72
2022/03/03 04:43:53;;;;;;;12.00;6.05;;;2.90;99.90;;;;;;5208528;28;20029;-72
2022/03/03 04:46:24;;;;;;;8.30;5.25;;;2.80;99.90;;;;;;5208445;28;20032;-73
2022/03/03 04:48:59;;;;;;;11.95;7.45;;;2.90;99.90;;;;;;5208479;28;20350;-73
2022/03/03 04:51:30;;;;;;;14.73;6.50;;;2.90;99.90;;;;;;5208333;28;20019;-72
2022/03/03 04:54:02;;;;;;;11.02;6.88;;;2.90;99.90;;;;;;5208336;28;20156;-73
2022/03/03 04:56:33;;;;;;;12.52;7.10;;;2.80;99.90;;;;;;5208370;28;20049;-72
2022/03/03 04:59:05;;;;;;;10.25;6.05;;;2.80;99.90;;;;;;5208063;28;20029;-73
2022/03/03 05:01:36;;;;;;;12.32;7.68;;;2.70;99.90;;;;;;5208157;28;20362;-73
2022/03/03 05:04:07;;;;;;;11.27;7.25;;;2.80;99.90;;;;;;5208030;28;20022;-73
2022/03/03 05:06:38;;;;;;;10.70;6.57;;;2.80;99.90;;;;;;5208061;28;20033;-72
2022/03/03 05:09:09;;;;;;;15.73;8.60;;;2.80;99.90;;;;;;5208040;28;20435;-74
2022/03/03 05:11:40;;;;;;;12.30;7.55;;;2.80;99.90;;;;;;5207970;28;20017;-73
2022/03/03 05:14:11;;;;;;;9.40;5.57;;;2.80;99.90;;;;;;5208010;28;20034;-74
2022/03/03 05:16:42;;;;;;;10.80;4.65;;;2.70;99.90;;;;;;5208051;28;20029;-73
2022/03/03 05:19:12;;;;;;;7.53;4.57;;;2.90;99.90;;;;;;5207855;28;20096;-72
2022/03/03 05:21:43;;;;;;;9.85;5.93;;;2.80;99.90;;;;;;5222948;28;20034;-73
2022/03/03 05:24:14;;;;;;;7.82;4.85;;;2.80;99.90;;;;;;5207749;28;20057;-72
2022/03/03 05:26:45;;;;;;;7.93;5.00;;;2.80;99.90;;;;;;5207765;28;20037;-73
2022/03/03 05:29:16;;;;;;;8.32;5.25;;;2.90;99.90;;;;;;5207580;28;20465;-72
2022/03/03 05:31:47;;;;;;;7.65;5.10;;;2.90;99.90;;;;;;5207674;28;20032;-72
2022/03/03 05:34:18;;;;;;;6.85;4.55;;;2.90;99.90;;;;;;5207524;28;20022;-72
2022/03/03 05:36:49;;;;;;;6.55;4.22;;;2.90;99.90;;;;;;5207527;28;20079;-73
2022/03/03 05:39:21;;;;;;;5.20;3.42;;;3.00;99.90;;;;;;5207450;28;20032;-73
2022/03/03 05:41:55;;;;;;;6.47;4.00;;;3.00;99.90;;;;;;5207422;28;20055;-72
2022/03/03 05:44:28;;;;;;;5.93;3.67;;;2.90;99.90;;;;;;5207382;28;20043;-72
2022/03/03 05:47:00;;;;;;;8.95;5.65;;;2.90;99.90;;;;;;5207343;28;20461;-72
2022/03/03 05:49:31;;;;;;;10.80;5.72;;;3.00;99.90;;;;;;5207199;28;20072;-73
2022/03/03 05:52:03;;;;;;;11.20;5.43;;;3.00;99.90;;;;;;5207070;28;20033;-72
2022/03/03 05:54:33;;;;;;;7.80;4.68;;;3.10;99.90;;;;;;5207155;28;20480;-72
2022/03/03 05:57:15;;;;;;;10.45;5.13;;;3.00;99.90;;;;;;5207032;28;20041;-73
2022/03/03 05:59:50;;;;;;;8.30;5.40;;;3.10;99.90;;;;;;5206755;28;20052;-72
2022/03/03 06:02:21;;;;;;;9.40;5.97;;;3.00;99.90;;;;;;5207082;28;20032;-72
2022/03/03 06:04:53;;;;;;;13.32;7.30;;;3.20;99.90;;;;;;5207068;28;20027;-72
2022/03/03 06:07:27;;;;;;;13.20;6.50;;;3.30;99.90;;;;;;5205740;28;20025;-72
2022/03/03 06:10:00;;;;;;;10.38;5.90;;;3.20;99.90;;;;;;5207105;28;20032;-72
2022/03/03 06:12:43;;;;;;;9.80;6.05;;;3.30;99.90;;;;;;5206958;28;20469;-72
2022/03/03 06:15:14;;;;;;;8.07;4.95;;;3.40;99.90;;;;;;5206850;28;20029;-73
2022/03/03 06:17:46;;;;;;;10.70;6.32;;;3.40;99.90;;;;;;5206929;28;20032;-72
2022/03/03 06:20:21;;;;;;;9.38;5.75;;;3.30;99.90;;;;;;5206585;28;20033;-73
2022/03/03 06:22:52;;;;;;;9.25;5.85;;;3.40;99.90;;;;;;5206654;28;20122;-73
2022/03/03 06:25:23;;;;;;;10.32;6.15;;;3.50;99.90;;;;;;5206681;28;20106;-73
2022/03/03 06:27:54;;;;;;;11.85;6.35;;;3.40;99.90;;;;;;5205940;28;20025;-72
2022/03/03 06:30:26;;;;;;;11.68;6.45;;;3.40;99.90;;;;;;5206620;28;20112;-73
2022/03/03 06:32:57;;;;;;;10.77;6.53;;;3.50;99.90;;;;;;5206632;28;20411;-73
2022/03/03 06:35:28;;;;;;;12.23;8.23;;;3.60;99.90;;;;;;5206530;28;20057;-73
2022/03/03 06:37:59;;;;;;;7.57;4.88;;;3.50;99.90;;;;;;5206586;28;20488;-73
2022/03/03 06:40:29;;;;;;;6.85;4.68;;;3.50;99.90;;;;;;5206468;28;20040;-72
2022/03/03 06:43:01;;;;;;;7.15;4.97;;;3.60;99.90;;;;;;5206596;28;20038;-73
2022/03/03 06:45:33;;;;;;;9.52;5.43;;;3.60;99.90;;;;;;5206508;28;20021;-72
2022/03/03 06:48:05;;;;;;;7.60;4.75;;;3.70;99.90;;;;;;5206550;28;20088;-72
2022/03/03 06:50:38;;;;;;;6.63;4.28;;;3.50;99.90;;;;;;5206373;28;20370;-73
2022/03/03 06:53:10;;;;;;;7.72;4.80;;;3.50;99.90;;;;;;5206443;28;20182;-72
2022/03/03 06:55:41;;;;;;;8.98;5.30;;;3.50;99.90;;;;;;5206314;28;20029;-72
2022/03/03 06:58:13;;;;;;;8.48;5.20;;;3.40;99.90;;;;;;5206341;28;20037;-72
2022/03/03 07:00:51;;;;;;;9.77;5.55;;;3.50;99.90;;;;;;5206050;28;20103;-73
2022/03/03 07:03:22;;;;;;;7.95;5.07;;;3.50;99.90;;;;;;5210614;28;20037;-72
2022/03/03 07:05:53;;;;;;;6.95;4.43;;;3.60;99.90;;;;;;5210390;28;20035;-72
2022/03/03 07:08:24;;;;;;;8.70;5.13;;;3.60;99.90;;;;;;5210388;28;20104;-73
2022/03/03 07:10:55;;;;;;;5.53;3.85;;;3.50;99.90;;;;;;5210337;28;20362;-73
2022/03/03 07:13:26;;;;;;;6.97;4.80;;;3.50;99.90;;;;;;5210578;28;20037;-72
2022/03/03 07:16:20;;;;;;;10.63;6.40;;;3.60;99.90;;;;;;5210195;28;20076;-73
2022/03/03 07:18:52;;;;;;;10.38;4.78;;;3.60;99.90;;;;;;5210238;28;20025;-73
2022/03/03 07:21:56;;;;;;;9.57;4.88;;;3.60;99.90;;;;;;5209795;28;20048;-72
2022/03/03 07:24:33;;;;;;;8.00;4.78;;;3.60;99.90;;;;;;5210118;28;20469;-72
2022/03/03 07:27:07;;;;;;;7.72;5.15;;;3.70;99.90;;;;;;5209895;28;20037;-72
2022/03/03 07:29:39;;;;;;;6.55;4.38;;;3.70;99.90;;;;;;5209968;28;20029;-72
2022/03/03 07:32:11;;;;;;;5.63;3.65;;;3.80;99.90;;;;;;5209975;28;20384;-72
2022/03/03 07:34:44;;;;;;;8.52;5.07;;;3.80;99.90;;;;;;5209875;28;20041;-72
2022/03/03 07:37:22;;;;;;;7.88;4.65;;;3.70;99.90;;;;;;5209838;28;20469;-72
2022/03/03 07:39:54;;;;;;;5.60;4.13;;;3.80;99.90;;;;;;5209813;28;20026;-73
2022/03/03 07:42:26;;;;;;;7.95;5.22;;;4.00;99.90;;;;;;5209675;28;20030;-72
2022/03/03 07:44:58;;;;;;;7.75;4.57;;;4.00;99.90;;;;;;5209666;28;20420;-72
2022/03/03 07:47:29;;;;;;;8.82;4.88;;;4.10;99.90;;;;;;5209647;28;20029;-72
2022/03/03 07:50:00;;;;;;;10.73;5.57;;;4.10;99.90;;;;;;5209573;28;20112;-72
2022/03/03 07:52:31;;;;;;;5.75;3.65;;;3.90;99.90;;;;;;5209500;28;20100;-72
2022/03/03 07:55:02;;;;;;;8.98;4.20;;;3.90;99.90;;;;;;5209616;28;20079;-72
2022/03/03 07:57:39;;;;;;;7.32;5.25;;;4.00;99.90;;;;;;5209449;28;20025;-73
2022/03/03 08:00:13;;;;;;;9.40;3.70;;;4.10;99.90;;;;;;5209229;28;20037;-72
2022/03/03 08:02:45;;;;;;;7.05;4.05;;;4.00;99.90;;;;;;5209279;28;20575;-73
2022/03/03 08:05:16;;;;;;;8.27;4.72;;;4.10;99.90;;;;;;5209256;28;20088;-72
2022/03/03 08:07:48;;;;;;;5.75;3.80;;;4.20;99.90;;;;;;5209347;28;20058;-72
2022/03/03 08:10:20;;;;;;;5.63;3.70;;;4.20;99.90;;;;;;5207935;28;20503;-72
2022/03/03 08:12:55;;;;;;;5.38;3.83;;;4.20;99.90;;;;;;5207974;28;20033;-72
2022/03/03 08:15:26;;;;;;;6.25;4.10;;;4.30;99.90;;;;;;5209173;28;20021;-72
2022/03/03 08:17:57;;;;;;;7.65;4.50;;;4.40;99.90;;;;;;5209104;28;20014;-72
2022/03/03 08:20:28;;;;;;;5.72;3.80;;;4.50;99.90;;;;;;5208787;28;20030;-72
2022/03/03 08:23:00;;;;;;;5.38;3.97;;;4.50;99.90;;;;;;5208857;28;20107;-73
2022/03/03 08:25:33;;;;;;;5.30;3.85;;;4.60;99.90;;;;;;5208843;28;20025;-73
2022/03/03 08:28:06;;;;;;;6.53;4.10;;;4.70;99.90;;;;;;5208748;28;20429;-73
2022/03/03 08:30:37;;;;;;;4.35;3.10;;;4.60;99.90;;;;;;5208852;28;20024;-73
2022/03/03 08:33:40;;;;;;;7.45;4.95;;;4.30;99.90;;;;;;5208779;28;20037;-72
2022/03/03 08:36:44;;;;;;;4.90;3.70;;;4.70;99.90;;;;;;5208628;28;20018;-73
2022/03/03 08:39:18;;;;;;;7.10;4.40;;;4.90;99.90;;;;;;5208747;28;20116;-72
2022/03/03 08:41:54;;;;;;;4.72;3.30;;;5.10;99.90;;;;;;5208453;28;20041;-72
2022/03/03 08:44:32;;;;;;;6.63;4.22;;;5.20;99.90;;;;;;5208588;28;20470;-72
2022/03/03 08:47:04;;;;;;;5.57;3.80;;;5.60;99.90;;;;;;5208593;28;20469;-73
2022/03/03 08:49:40;;;;;;;5.70;3.75;;;5.60;99.90;;;;;;5208454;28;20025;-73
2022/03/03 08:52:11;;;;;;;5.55;3.28;;;5.90;99.90;;;;;;5208599;28;20144;-73
2022/03/03 08:54:42;;;;;;;4.15;3.22;;;5.80;99.90;;;;;;5208266;28;20029;-73
2022/03/03 08:57:12;;;;;;;6.18;3.72;;;5.70;99.90;;;;;;5208238;28;20436;-72
2022/03/03 08:59:43;;;;;;;5.10;3.60;;;5.70;99.90;;;;;;5208026;28;20109;-73
2022/03/03 09:02:20;;;;;;;7.63;3.70;;;5.80;99.90;;;;;;5208183;28;20513;-73
2022/03/03 09:04:51;;;;;;;3.88;2.85;;;5.80;99.90;;;;;;5208106;28;20057;-72
2022/03/03 09:07:21;;;;;;;3.78;3.13;;;5.60;99.90;;;;;;5208128;28;20083;-72
2022/03/03 09:09:52;;;;;;;4.65;3.20;;;5.60;99.90;;;;;;5208054;28;20045;-73
2022/03/03 09:12:23;;;;;;;5.47;3.30;;;5.30;99.90;;;;;;5208065;28;20350;-73
2022/03/03 09:14:54;;;;;;;3.95;2.65;;;5.40;99.90;;;;;;5207949;28;20024;-72
2022/03/03 09:17:25;;;;;;;5.05;3.17;;;5.50;99.90;;;;;;5207974;28;20030;-73
2022/03/03 09:19:56;;;;;;;5.50;3.60;;;5.50;99.90;;;;;;5207634;28;20053;-73
2022/03/03 09:22:27;;;;;;;4.90;3.80;;;5.60;99.90;;;;;;5207793;28;20087;-72
2022/03/03 09:24:58;;;;;;;5.20;3.85;;;5.90;99.90;;;;;;5207277;28;20036;-72
2022/03/03 09:27:29;;;;;;;5.00;3.80;;;5.90;99.90;;;;;;5207641;28;20041;-73
2022/03/03 09:30:00;;;;;;;6.78;4.03;;;5.90;99.90;;;;;;5207626;28;20032;-73
2022/03/03 09:32:31;;;;;;;6.80;3.53;;;5.60;99.90;;;;;;5207566;28;20481;-73
2022/03/03 09:35:03;;;;;;;6.60;4.60;;;6.00;99.90;;;;;;5207552;28;20080;-73
2022/03/03 09:37:34;;;;;;;7.45;4.40;;;6.20;99.90;;;;;;5207602;28;20033;-73
2022/03/03 09:40:08;;;;;;;8.23;5.20;;;5.90;99.90;;;;;;5207400;28;20025;-73
2022/03/03 09:42:39;;;;;;;8.30;5.28;;;6.10;99.90;;;;;;5207376;28;20038;-72
2022/03/03 09:45:11;;;;;;;8.48;5.35;;;6.30;99.90;;;;;;5207310;28;20057;-73
2022/03/03 09:47:41;;;;;;;9.07;5.75;;;6.40;99.90;;;;;;5207477;28;20377;-73
2022/03/03 09:50:12;;;;;;;9.80;6.53;;;6.10;99.90;;;;;;5207217;28;20024;-72
2022/03/03 09:52:45;;;;;;;9.60;6.15;;;6.30;99.90;;;;;;5207276;28;20061;-73
2022/03/03 09:55:16;;;;;;;8.15;5.88;;;6.60;99.90;;;;;;5207214;28;20033;-72
2022/03/03 09:57:48;;;;;;;9.82;6.28;;;6.90;99.90;;;;;;5207072;28;20038;-72
2022/03/03 10:00:19;;;;;;;9.43;6.30;;;7.00;99.90;;;;;;5206781;28;20125;-72
2022/03/03 10:02:55;;;;;;;7.60;5.72;;;7.20;99.90;;;;;;5207036;28;20104;-72
2022/03/03 10:05:34;;;;;;;8.23;5.97;;;7.20;99.90;;;;;;5207059;28;20049;-73
2022/03/03 10:08:07;;;;;;;7.68;5.13;;;7.20;99.90;;;;;;5207145;28;20037;-72
2022/03/03 10:10:41;;;;;;;8.85;5.95;;;7.00;99.90;;;;;;5205762;28;20101;-72
2022/03/03 10:13:17;;;;;;;8.75;5.22;;;7.40;99.90;;;;;;5207004;28;20591;-73
2022/03/03 10:16:03;;;;;;;7.95;5.90;;;7.10;99.90;;;;;;5206881;28;20462;-72
2022/03/03 10:18:33;;;;;;;7.47;5.60;;;7.60;99.90;;;;;;5206958;28;20493;-73
2022/03/03 10:21:04;;;;;;;8.05;5.63;;;8.50;99.90;;;;;;5206591;28;20118;-73
2022/03/03 10:23:36;;;;;;;9.77;6.07;;;7.90;99.90;;;;;;5206707;28;20090;-73
2022/03/03 10:26:09;;;;;;;6.07;4.78;;;8.30;99.90;;;;;;5206658;28;20034;-74
2022/03/03 10:28:40;;;;;;;10.30;5.78;;;7.90;99.90;;;;;;5206823;28;20489;-72
2022/03/03 10:31:16;;;;;;;10.52;6.07;;;7.60;99.90;;;;;;5206657;28;20492;-73
2022/03/03 10:33:49;;;;;;;8.15;5.72;;;8.60;99.90;;;;;;5206615;28;20037;-73
2022/03/03 10:36:26;;;;;;;11.00;6.30;;;9.10;99.90;;;;;;5205846;28;20053;-73
2022/03/03 10:39:03;;;;;;;6.72;5.00;;;9.20;99.90;;;;;;5206670;28;20355;-72
2022/03/03 10:41:42;;;;;;;7.13;5.15;;;9.10;99.90;;;;;;5206429;28;20094;-73
2022/03/03 10:44:29;;;;;;;9.70;6.13;;;9.30;99.90;;;;;;5206465;28;20021;-72
2022/03/03 10:47:05;;;;;;;7.55;5.60;;;9.00;99.90;;;;;;5206516;28;20060;-72
2022/03/03 10:49:38;;;;;;;8.50;5.38;;;8.20;99.90;;;;;;5206588;28;20021;-72
2022/03/03 10:52:09;;;;;;;8.45;5.40;;;8.20;99.90;;;;;;5206634;28;20422;-72
2022/03/03 10:55:06;;;;;;;7.38;5.22;;;9.00;99.90;;;;;;5206518;28;20053;-72
2022/03/03 10:57:51;;;;;;;8.68;5.90;;;8.60;99.90;;;;;;5206428;28;20108;-73
2022/03/03 11:00:27;;;;;;;8.98;5.38;;;8.60;99.90;;;;;;5206180;28;20504;-72
2022/03/03 11:03:02;;;;;;;9.20;5.60;;;8.10;99.90;;;;;;5206408;28;20366;-73
2022/03/03 11:05:33;;;;;;;10.77;7.18;;;7.60;99.90;;;;;;5206367;28;20076;-72
2022/03/03 11:08:04;;;;;;;7.07;5.32;;;7.70;99.90;;;;;;5206382;28;20025;-73
2022/03/03 11:10:35;;;;;;;7.68;5.65;;;7.50;99.90;;;;;;5206424;28;20022;-73
2022/03/03 11:13:06;;;;;;;16.63;9.60;;;7.00;99.90;;;;;;5206391;28;20377;-72
2022/03/03 11:15:37;;;;;;;10.90;6.32;;;6.70;99.90;;;;;;5206315;28;20029;-72
2022/03/03 11:18:09;;;;;;;10.55;6.13;;;6.60;99.90;;;;;;5206294;28;20052;-73
2022/03/03 11:20:40;;;;;;;9.23;6.50;;;6.30;99.90;;;;;;5206138;28;20424;-71
2022/03/03 11:23:11;;;;;;;11.07;6.55;;;5.90;99.90;;;;;;5206119;28;20043;-72
2022/03/03 11:25:41;;;;;;;9.00;6.22;;;6.10;99.90;;;;;;5204867;28;20068;-72
2022/03/03 11:28:14;;;;;;;11.50;7.30;;;5.50;99.90;;;;;;5206047;28;20033;-72
2022/03/03 11:30:46;;;;;;;9.15;6.65;;;5.30;99.90;;;;;;5206061;28;20048;-72
2022/03/03 11:33:32;;;;;;;11.10;6.80;;;5.40;99.90;;;;;;5206038;28;20116;-72
2022/03/03 11:36:05;;;;;;;9.35;6.80;;;5.70;99.90;;;;;;5206056;28;20087;-72
2022/03/03 11:38:44;;;;;;;10.55;6.82;;;5.60;99.90;;;;;;5206102;28;20022;-72
2022/03/03 11:41:15;;;;;;;10.25;6.93;;;5.40;99.90;;;;;;5205861;28;20040;-72
2022/03/03 11:43:58;;;;;;;12.30;8.23;;;5.90;99.90;;;;;;5205987;28;20457;-73
2022/03/03 11:46:49;;;;;;;11.13;7.38;;;5.80;99.90;;;;;;5206073;28;20021;-73
2022/03/03 11:49:24;;;;;;;19.48;10.73;;;6.00;99.90;;;;;;5208409;28;20413;-73
2022/03/03 11:51:57;;;;;;;13.63;9.57;;;5.80;99.90;;;;;;5208209;28;20033;-73
2022/03/03 11:54:31;;;;;;;13.77;8.65;;;5.90;99.90;;;;;;5209537;28;20100;-72
2022/03/03 11:57:06;;;;;;;13.68;9.60;;;5.60;99.90;;;;;;5209438;28;20373;-73
2022/03/03 11:59:50;;;;;;;11.18;7.75;;;5.90;99.90;;;;;;5209224;28;20385;-73
2022/03/03 12:02:32;;;;;;;11.13;7.95;;;6.30;99.90;;;;;;5209414;28;20120;-73
2022/03/03 12:05:28;;;;;;;11.43;7.97;;;6.50;99.90;;;;;;5209408;28;20026;-73
2022/03/03 12:08:12;;;;;;;10.48;7.32;;;6.60;99.90;;;;;;5209298;28;20060;-73
2022/03/03 12:11:01;;;;;;;8.85;6.38;;;6.70;99.90;;;;;;5209316;28;20021;-73
2022/03/03 12:13:38;;;;;;;9.27;6.20;;;6.60;99.90;;;;;;5209243;28;20469;-73
2022/03/03 12:16:16;;;;;;;11.60;6.82;;;6.50;99.90;;;;;;5209218;28;20017;-73
2022/03/03 12:19:05;;;;;;;10.35;7.25;;;6.20;99.90;;;;;;5209107;28;20028;-73
2022/03/03 12:21:40;;;;;;;11.25;6.50;;;6.10;99.90;;;;;;5208775;28;20033;-73
2022/03/03 12:24:14;;;;;;;8.63;5.97;;;6.30;99.90;;;;;;5208990;28;20037;-73
2022/03/03 12:26:58;;;;;;;9.60;6.78;;;6.30;99.90;;;;;;5208999;28;20028;-73
2022/03/03 12:29:34;;;;;;;9.57;6.72;;;6.10;99.90;;;;;;5208944;28;20095;-73
2022/03/03 12:32:32;;;;;;;11.48;7.05;;;6.00;99.90;;;;;;5208783;28;20030;-73
2022/03/03 12:35:23;;;;;;;8.23;6.10;;;6.30;99.90;;;;;;5208660;28;20087;-73
2022/03/03 12:37:58;;;;;;;10.68;6.40;;;6.30;99.90;;;;;;5208851;28;20056;-73
2022/03/03 12:40:30;;;;;;;10.35;6.63;;;6.40;99.90;;;;;;5208570;28;20034;-73
2022/03/03 12:43:01;;;;;;;8.73;6.40;;;6.60;99.90;;;;;;5208620;28;20060;-73
2022/03/03 12:45:32;;;;;;;9.43;6.28;;;6.60;99.90;;;;;;5208520;28;20404;-72
2022/03/03 12:48:03;;;;;;;10.05;6.20;;;6.60;99.90;;;;;;5208596;28;20037;-72
2022/03/03 12:50:35;;;;;;;8.63;6.57;;;6.70;99.90;;;;;;5208433;28;20035;-73
2022/03/03 12:53:13;;;;;;;9.13;6.32;;;6.60;99.90;;;;;;5208451;28;20033;-72
2022/03/03 12:55:49;;;;;;;7.47;5.55;;;6.60;99.90;;;;;;5208401;28;20493;-73
2022/03/03 12:58:20;;;;;;;8.25;5.60;;;6.50;99.90;;;;;;5208132;28;20034;-72
2022/03/03 13:00:51;;;;;;;9.27;5.38;;;6.60;99.90;;;;;;5207286;28;20049;-72
2022/03/03 13:03:23;;;;;;;8.45;5.82;;;6.60;99.90;;;;;;5208174;28;20031;-73
2022/03/03 13:05:58;;;;;;;8.55;5.90;;;6.70;99.90;;;;;;5208119;28;20110;-73
2022/03/03 13:08:31;;;;;;;7.70;6.03;;;6.70;99.90;;;;;;5208130;28;20029;-73
2022/03/03 13:11:14;;;;;;;11.00;5.95;;;6.70;99.90;;;;;;5208128;28;20034;-73
2022/03/03 13:13:48;;;;;;;7.72;4.90;;;6.40;99.90;;;;;;5207959;28;20039;-73
2022/03/03 13:16:24;;;;;;;8.32;5.97;;;6.30;99.90;;;;;;5207960;28;20424;-72
2022/03/03 13:18:57;;;;;;;9.90;5.82;;;6.50;99.90;;;;;;5207897;28;20030;-72
2022/03/03 13:21:29;;;;;;;8.48;5.80;;;6.30;99.90;;;;;;5207645;28;20025;-72
2022/03/03 13:24:11;;;;;;;8.25;6.20;;;6.40;99.90;;;;;;5207677;28;20029;-73